Time;durP1;ratioP1;P1;durP2;ratioP2;P2;SDS_P1;SDS_P2;PMS_P1;PMS_P2;Temp;Humidity;BMP_temperature;BMP_pressure;BME280_temperature;BME280_humidity;BME280_pressure;Samples;Min_cycle;Max_cycle;Signal;HPM_P1;HPM_P2
2022/11/27 00:00:40;;;;;;;14.10;8.50;;;;;;;6.46;61.09;100325.37;226555;1243;138391;-68
2022/11/27 00:06:14;;;;;;;16.40;10.10;;;;;;;6.41;60.67;100325.30;227459;1236;139362;-68
2022/11/27 00:11:21;;;;;;;15.40;9.30;;;;;;;6.39;61.14;100326.38;226080;1233;138559;-66
2022/11/27 00:16:26;;;;;;;15.80;9.90;;;;;;;6.39;61.33;100330.62;227469;1234;139194;-67
2022/11/27 00:21:31;;;;;;;;;;;;;;;6.37;61.31;100330.66;226217;1238;138030;-67
2022/11/27 00:26:34;;;;;;;15.40;9.40;;;;;;;6.36;61.22;100324.52;226550;1237;125351;-67
2022/11/27 00:31:40;;;;;;;13.90;8.20;;;;;;;6.34;60.81;100323.16;227505;1244;138683;-67
2022/11/27 00:36:44;;;;;;;15.20;8.70;;;;;;;6.32;60.62;100327.46;226416;1229;138444;-67
2022/11/27 00:41:51;;;;;;;15.70;9.30;;;;;;;6.32;60.68;100325.34;226360;1241;138316;-67
2022/11/27 00:46:54;;;;;;;15.70;9.30;;;;;;;6.30;60.73;100317.27;226382;1240;138336;-67
2022/11/27 00:51:58;;;;;;;16.60;10.50;;;;;;;6.27;61.25;100315.39;226276;1236;138571;-67
2022/11/27 00:57:04;;;;;;;18.60;10.30;;;;;;;6.25;61.19;100322.67;226511;1238;139097;-68
2022/11/27 01:02:08;;;;;;;15.20;9.80;;;;;;;6.26;61.36;100316.51;227581;1232;138435;-67
2022/11/27 01:07:12;;;;;;;16.60;10.70;;;;;;;6.23;61.40;100312.16;226343;1235;138528;-68
2022/11/27 01:12:15;;;;;;;17.70;11.10;;;;;;;6.22;61.61;100314.30;226092;1251;139306;-67
2022/11/27 01:17:19;;;;;;;19.80;12.10;;;;;;;6.20;62.15;100312.23;226384;1243;139583;-67
2022/11/27 01:22:22;;;;;;;20.10;11.60;;;;;;;6.18;62.44;100309.80;226418;1241;138807;-68
2022/11/27 01:27:26;;;;;;;20.90;12.60;;;;;;;6.19;62.88;100310.48;226437;1241;140137;-67
2022/11/27 01:32:29;;;;;;;17.20;11.70;;;;;;;6.19;63.17;100311.55;226392;1251;139382;-67
2022/11/27 01:37:35;;;;;;;21.00;13.00;;;;;;;6.17;63.31;100311.77;227465;1239;138978;-67
2022/11/27 01:42:39;;;;;;;23.50;13.50;;;;;;;6.14;63.29;100310.59;226463;1251;138465;-68
2022/11/27 01:48:01;;;;;;;22.70;13.90;;;;;;;6.13;63.28;100309.73;226413;1237;138456;-68
2022/11/27 01:53:30;;;;;;;25.30;14.60;;;;;;;6.09;63.50;100305.80;226390;1245;138779;-68
2022/11/27 01:58:35;;;;;;;27.30;14.70;;;;;;;6.15;63.58;100300.89;226310;1238;139105;-67
2022/11/27 02:03:38;;;;;;;24.70;14.00;;;;;;;6.25;63.45;100299.08;227443;1236;139258;-66
2022/11/27 02:08:42;;;;;;;22.70;12.70;;;;;;;6.33;63.29;100307.16;226433;1240;139108;-67
2022/11/27 02:14:25;;;;;;;20.60;12.60;;;;;;;6.35;63.12;100307.11;227466;1244;139332;-66
2022/11/27 02:19:31;;;;;;;21.30;12.10;;;;;;;6.33;63.11;100308.05;227550;1244;138626;-67
2022/11/27 02:25:00;;;;;;;21.70;12.20;;;;;;;6.32;62.91;100302.96;226578;1234;138542;-67
2022/11/27 02:30:06;;;;;;;20.50;12.30;;;;;;;6.30;62.74;100311.28;227289;1241;138659;-67
2022/11/27 02:35:18;;;;;;;21.00;11.80;;;;;;;6.26;62.59;100310.84;226064;1251;138482;-66
2022/11/27 02:40:41;;;;;;;22.40;13.00;;;;;;;6.23;63.01;100312.86;227454;1234;138533;-68
2022/11/27 02:45:50;;;;;;;20.60;12.90;;;;;;;6.19;63.04;100319.66;226447;1241;138671;-67
2022/11/27 02:50:55;;;;;;;21.70;12.80;;;;;;;6.17;63.04;100327.80;226169;1235;138416;-67
2022/11/27 02:56:02;;;;;;;20.40;13.00;;;;;;;6.15;63.25;100332.59;226300;1235;139468;-67
2022/11/27 03:01:08;;;;;;;22.50;13.10;;;;;;;6.14;63.18;100333.50;226388;1244;138054;-67
2022/11/27 03:06:18;;;;;;;23.20;12.80;;;;;;;6.11;63.44;100335.17;226497;1251;138662;-68
2022/11/27 03:11:22;;;;;;;20.90;12.80;;;;;;;6.09;63.00;100337.52;226487;1243;138492;-67
2022/11/27 03:16:47;;;;;;;23.20;13.30;;;;;;;6.07;63.01;100337.19;226558;1242;139238;-67
2022/11/27 03:22:00;;;;;;;25.10;14.50;;;;;;;5.98;63.38;100342.15;226283;1243;138506;-66
2022/11/27 03:27:04;;;;;;;19.80;12.90;;;;;;;6.00;63.96;100344.92;226391;1240;138887;-67
2022/11/27 03:32:08;;;;;;;19.90;12.60;;;;;;;6.03;63.73;100338.36;226250;1248;138855;-67
2022/11/27 03:37:13;;;;;;;20.70;12.90;;;;;;;5.99;63.76;100336.67;227636;1234;138748;-67
2022/11/27 03:42:41;;;;;;;22.00;12.00;;;;;;;5.96;63.87;100342.39;226288;1240;139938;-66
2022/11/27 03:47:51;;;;;;;21.50;13.30;;;;;;;5.95;63.62;100342.41;227406;1243;139035;-66
2022/11/27 03:53:54;;;;;;;20.10;12.90;;;;;;;5.94;63.67;100344.17;227257;1234;139345;-66
2022/11/27 03:59:03;;;;;;;18.60;11.10;;;;;;;5.99;63.14;100348.84;226247;1245;140645;-66
2022/11/27 04:04:06;;;;;;;21.90;12.40;;;;;;;5.99;62.87;100347.77;226451;1251;140025;-66
2022/11/27 04:09:10;;;;;;;17.60;11.30;;;;;;;6.00;62.76;100344.91;226312;1245;139310;-66
2022/11/27 04:14:14;;;;;;;18.40;11.20;;;;;;;6.01;62.65;100345.09;226313;1237;138619;-67
2022/11/27 04:19:20;;;;;;;17.70;10.80;;;;;;;6.03;62.86;100348.38;226408;1241;139442;-66
2022/11/27 04:24:24;;;;;;;21.10;12.10;;;;;;;6.01;63.36;100343.86;226691;1244;139033;-66
2022/11/27 04:29:27;;;;;;;18.40;12.10;;;;;;;5.97;63.77;100345.52;226669;1240;138931;-66
2022/11/27 04:34:32;;;;;;;19.00;11.60;;;;;;;5.96;63.59;100347.84;226349;1243;138597;-68
2022/11/27 04:39:38;;;;;;;18.00;11.90;;;;;;;5.96;63.39;100350.14;226391;1240;138208;-67
2022/11/27 04:44:42;;;;;;;19.70;11.30;;;;;;;6.02;63.38;100355.10;226441;1256;138925;-68
2022/11/27 04:49:45;;;;;;;19.00;11.10;;;;;;;6.10;63.26;100348.23;226294;1226;139517;-67
2022/11/27 04:54:49;;;;;;;18.00;11.50;;;;;;;6.16;63.24;100344.38;226545;1241;138880;-67
2022/11/27 05:00:01;;;;;;;16.50;10.60;;;;;;;6.20;63.00;100337.08;226249;1241;138907;-68
2022/11/27 05:05:05;;;;;;;16.70;9.80;;;;;;;6.21;62.97;100333.70;226146;1243;138967;-67
2022/11/27 05:10:09;;;;;;;12.90;9.00;;;;;;;6.24;63.00;100336.63;227375;1234;140937;-67
2022/11/27 05:15:13;;;;;;;14.10;8.80;;;;;;;6.17;62.62;100334.48;226413;1242;138252;-67
2022/11/27 05:20:17;;;;;;;14.80;9.20;;;;;;;6.11;62.65;100333.21;226425;1242;138648;-66
2022/11/27 05:25:20;;;;;;;16.80;10.20;;;;;;;6.06;63.13;100338.61;226269;1256;138300;-66
2022/11/27 05:30:25;;;;;;;13.60;8.60;;;;;;;6.02;63.02;100345.95;226315;1232;138142;-66
2022/11/27 05:35:28;;;;;;;15.00;9.30;;;;;;;6.00;63.81;100345.80;226362;1256;138980;-67
2022/11/27 05:40:32;;;;;;;14.30;8.90;;;;;;;5.99;64.42;100350.42;226348;1236;138914;-67
2022/11/27 05:45:36;;;;;;;16.50;9.70;;;;;;;5.97;63.90;100363.14;226110;1237;138282;-67
2022/11/27 05:50:40;;;;;;;16.40;9.60;;;;;;;5.95;64.20;100362.14;226139;1245;138935;-67
2022/11/27 05:55:47;;;;;;;17.10;10.20;;;;;;;5.98;64.42;100361.02;226411;1244;138809;-67
2022/11/27 06:00:51;;;;;;;20.10;10.30;;;;;;;5.98;64.65;100358.36;226519;1244;138175;-67
2022/11/27 06:05:55;;;;;;;16.20;9.90;;;;;;;5.93;64.73;100352.12;226217;1241;138675;-67
2022/11/27 06:11:10;;;;;;;19.20;9.80;;;;;;;5.92;64.64;100347.73;227118;1237;138501;-67
2022/11/27 06:16:17;;;;;;;15.90;10.10;;;;;;;5.87;64.97;100347.80;226520;1240;138643;-68
2022/11/27 06:21:23;;;;;;;17.80;9.90;;;;;;;5.85;65.14;100344.52;227424;1237;138907;-67
2022/11/27 06:26:29;;;;;;;14.20;10.20;;;;;;;5.90;65.02;100352.86;226145;1255;139128;-68
2022/11/27 06:31:33;;;;;;;17.20;10.30;;;;;;;5.97;65.29;100356.80;227257;1230;138774;-67
2022/11/27 06:36:46;;;;;;;17.40;10.80;;;;;;;6.06;65.10;100361.88;226528;1238;139593;-66
2022/11/27 06:41:49;;;;;;;18.70;10.50;;;;;;;6.07;64.80;100358.14;226311;1243;139085;-67
2022/11/27 06:46:55;;;;;;;15.90;10.20;;;;;;;6.14;65.07;100345.33;225968;1244;138588;-66
2022/11/27 06:52:01;;;;;;;19.20;10.50;;;;;;;6.21;64.97;100343.91;226170;1241;139689;-66
2022/11/27 06:57:04;;;;;;;16.50;10.60;;;;;;;6.24;64.82;100341.93;226166;1237;138683;-68
2022/11/27 07:02:13;;;;;;;18.60;11.90;;;;;;;6.20;64.71;100343.96;226275;1241;138538;-67
2022/11/27 07:07:17;;;;;;;22.00;11.70;;;;;;;6.21;64.90;100341.10;226560;1238;140039;-68
2022/11/27 07:12:25;;;;;;;20.30;11.60;;;;;;;6.17;65.05;100340.13;226627;1243;138985;-67
2022/11/27 07:17:28;;;;;;;23.60;12.40;;;;;;;6.16;64.89;100337.16;226220;1242;138501;-67
2022/11/27 07:22:32;;;;;;;23.70;12.60;;;;;;;6.14;64.99;100334.20;226241;1244;138614;-68
2022/11/27 07:27:36;;;;;;;22.90;12.10;;;;;;;6.06;64.88;100340.73;226320;1249;138907;-68
2022/11/27 07:32:40;;;;;;;26.80;13.20;;;;;;;6.02;64.88;100340.48;227580;1237;138858;-66
2022/11/27 07:37:48;;;;;;;23.80;13.80;;;;;;;6.05;64.87;100346.75;227625;1225;139418;-67
2022/11/27 07:42:52;;;;;;;26.40;14.50;;;;;;;6.06;64.68;100354.14;226577;1241;139638;-66
2022/11/27 07:47:58;;;;;;;30.70;14.90;;;;;;;6.08;64.96;100353.38;226269;1245;138795;-67
2022/11/27 07:53:05;;;;;;;23.00;13.10;;;;;;;6.09;65.09;100351.41;227258;1233;138460;-66
2022/11/27 07:58:09;;;;;;;24.70;13.60;;;;;;;6.19;65.25;100351.89;226641;1240;139834;-66
2022/11/27 08:03:26;;;;;;;21.90;14.10;;;;;;;6.29;64.88;100353.44;226345;1236;139572;-68
2022/11/27 08:08:31;;;;;;;24.00;15.00;;;;;;;6.43;64.95;100354.33;226150;1253;140848;-66
2022/11/27 08:13:34;;;;;;;25.10;16.00;;;;;;;6.46;64.68;100357.44;227347;1244;138673;-67
2022/11/27 08:18:41;;;;;;;24.50;14.70;;;;;;;6.44;64.69;100361.37;226667;1240;138907;-66
2022/11/27 08:23:52;;;;;;;21.90;13.10;;;;;;;6.46;64.79;100361.30;226520;1235;139305;-68
2022/11/27 08:28:56;;;;;;;24.00;13.40;;;;;;;6.45;64.82;100357.99;227398;1236;138736;-68
2022/11/27 08:34:00;;;;;;;24.40;13.20;;;;;;;6.46;64.68;100359.91;226091;1241;139005;-68
2022/11/27 08:39:03;;;;;;;24.20;13.70;;;;;;;6.44;64.56;100347.61;226268;1240;138435;-69
2022/11/27 08:44:06;;;;;;;23.20;15.30;;;;;;;6.46;64.48;100344.23;226186;1251;139496;-69
2022/11/27 08:49:11;;;;;;;21.80;14.00;;;;;;;6.48;64.88;100340.11;226201;1243;160068;-69
2022/11/27 08:54:14;;;;;;;22.40;13.20;;;;;;;6.50;64.73;100342.20;227464;1233;139347;-68
2022/11/27 08:59:17;;;;;;;21.40;13.50;;;;;;;6.49;64.47;100336.57;226337;1243;138920;-68
2022/11/27 09:04:20;;;;;;;23.60;13.70;;;;;;;6.50;64.41;100344.29;226328;1242;139015;-69
2022/11/27 09:09:24;;;;;;;24.20;14.60;;;;;;;6.52;64.53;100348.63;226174;1237;139889;-69
2022/11/27 09:14:27;;;;;;;24.00;13.90;;;;;;;6.55;64.56;100341.70;226203;1235;138805;-66
2022/11/27 09:19:30;;;;;;;28.40;15.40;;;;;;;6.57;64.60;100340.40;226374;1241;138818;-65
2022/11/27 09:24:39;;;;;;;23.90;15.00;;;;;;;6.61;64.74;100343.14;226354;1232;138587;-66
2022/11/27 09:29:43;;;;;;;28.60;15.70;;;;;;;6.60;64.63;100338.92;227535;1244;138324;-66
2022/11/27 09:34:47;;;;;;;25.70;15.20;;;;;;;6.63;64.74;100343.98;226610;1238;138326;-66
2022/11/27 09:39:58;;;;;;;27.70;15.70;;;;;;;6.66;64.74;100346.55;226216;1242;138935;-66
2022/11/27 09:45:04;;;;;;;29.40;16.60;;;;;;;6.70;64.58;100348.38;226966;1244;138632;-67
2022/11/27 09:50:14;;;;;;;26.30;15.30;;;;;;;6.74;64.41;100346.51;226395;1251;138996;-65
2022/11/27 09:55:36;;;;;;;26.20;15.60;;;;;;;6.84;64.35;100346.08;226413;1244;139223;-66
2022/11/27 10:00:42;;;;;;;25.10;15.30;;;;;;;6.92;64.02;100340.59;226357;1251;138557;-64
2022/11/27 10:06:25;;;;;;;29.40;15.90;;;;;;;6.93;63.78;100337.20;226167;1241;138627;-65
2022/11/27 10:11:53;;;;;;;24.70;14.90;;;;;;;6.96;63.67;100331.13;226693;1243;139243;-65
2022/11/27 10:17:01;;;;;;;27.10;16.40;;;;;;;7.01;63.57;100326.77;226272;1242;139005;-65
2022/11/27 10:22:18;;;;;;;28.20;16.20;;;;;;;7.02;63.39;100316.67;226102;1240;138827;-66
2022/11/27 10:27:34;;;;;;;28.70;16.30;;;;;;;7.01;63.88;100320.23;226130;1236;138478;-66
2022/11/27 10:32:39;;;;;;;30.60;17.70;;;;;;;7.00;63.62;100315.15;226508;1237;139326;-67
2022/11/27 10:38:03;;;;;;;30.50;19.30;;;;;;;7.01;63.95;100308.58;226352;1241;138526;-67
2022/11/27 10:43:17;;;;;;;34.20;17.80;;;;;;;7.02;64.00;100310.69;226212;1241;139269;-66
2022/11/27 10:48:22;;;;;;;30.50;18.50;;;;;;;7.01;64.10;100307.19;226299;1248;138947;-66
2022/11/27 10:53:35;;;;;;;27.50;17.00;;;;;;;7.01;64.01;100300.14;226426;1234;138484;-65
2022/11/27 10:58:43;;;;;;;27.70;17.00;;;;;;;7.02;63.94;100299.02;226317;1236;138931;-67
2022/11/27 11:04:06;;;;;;;29.00;17.30;;;;;;;7.01;63.83;100291.65;226209;1251;138806;-66
2022/11/27 11:09:33;;;;;;;27.80;17.10;;;;;;;7.02;64.06;100287.04;226487;1250;139552;-68
2022/11/27 11:14:36;;;;;;;30.10;18.80;;;;;;;7.03;64.11;100286.30;226448;1240;139038;-69
2022/11/27 11:19:39;;;;;;;28.20;17.20;;;;;;;7.05;64.00;100276.34;226240;1251;138298;-68
2022/11/27 11:24:47;;;;;;;31.20;17.30;;;;;;;7.06;63.85;100269.97;226277;1237;138579;-68
2022/11/27 11:29:55;;;;;;;29.00;17.70;;;;;;;7.07;64.06;100266.44;227392;1243;138602;-67
2022/11/27 11:35:03;;;;;;;28.50;16.20;;;;;;;7.09;63.91;100260.37;226377;1235;138635;-68
2022/11/27 11:40:20;;;;;;;26.30;15.50;;;;;;;7.08;63.78;100263.92;226346;1244;139041;-67
2022/11/27 11:45:26;;;;;;;24.30;14.50;;;;;;;7.07;63.86;100262.72;226246;1251;138307;-69
2022/11/27 11:50:52;;;;;;;21.60;14.40;;;;;;;7.10;63.84;100260.70;226420;1250;138758;-67
2022/11/27 12:02:41;;;;;;;;;;;;;;;;;;;;;
2022/11/27 12:08:55;;;;;;;361.30;213.00;;;;;;;7.18;64.36;100249.88;226097;1231;139067;-68
2022/11/27 12:14:42;;;;;;;97.50;58.10;;;;;;;7.27;64.67;100246.08;225109;1254;139247;-63
2022/11/27 12:20:06;;;;;;;24.70;14.40;;;;;;;7.41;63.96;100245.67;225133;1238;139319;-65
2022/11/27 12:25:34;;;;;;;25.00;14.50;;;;;;;7.44;63.62;100230.76;224083;1240;139411;-64
2022/11/27 12:31:04;;;;;;;43.60;27.60;;;;;;;7.50;64.12;100230.04;225349;1239;138368;-64
2022/11/27 12:36:33;;;;;;;23.40;14.60;;;;;;;7.55;63.07;100230.08;225193;1251;138646;-64
2022/11/27 12:42:00;;;;;;;21.20;14.00;;;;;;;7.49;63.20;100230.96;226188;1237;138736;-66
2022/11/27 12:47:21;;;;;;;23.20;14.50;;;;;;;7.45;63.01;100233.55;226239;1234;138908;-65
2022/11/27 12:52:39;;;;;;;21.70;13.80;;;;;;;7.44;63.17;100230.42;226326;1227;138873;-64
2022/11/27 12:57:48;;;;;;;223.00;145.00;;;;;;;7.42;63.21;100233.64;227411;1242;138721;-70
2022/11/27 13:03:10;;;;;;;28.30;18.50;;;;;;;7.47;63.39;100227.69;226251;1236;139359;-70
2022/11/27 13:08:19;;;;;;;28.10;15.50;;;;;;;7.48;63.19;100217.40;226140;1237;138593;-72
2022/11/27 13:13:23;;;;;;;21.20;13.60;;;;;;;7.46;62.86;100219.76;226186;1243;138576;-67
2022/11/27 13:18:58;;;;;;;23.40;14.90;;;;;;;7.44;62.82;100213.30;226516;1243;139585;-68
2022/11/27 13:24:11;;;;;;;76.60;51.30;;;;;;;7.46;62.85;100210.23;226490;1237;138513;-67
2022/11/27 13:29:53;;;;;;;23.90;15.60;;;;;;;7.78;64.18;100211.34;225709;1251;138313;-66
2022/11/27 13:35:01;;;;;;;24.10;13.60;;;;;;;7.78;62.29;100212.58;225978;1250;138330;-70
2022/11/27 13:40:17;;;;;;;22.40;13.80;;;;;;;7.58;62.26;100210.54;226370;1249;138607;-69
2022/11/27 13:45:28;;;;;;;27.60;14.40;;;;;;;7.47;62.50;100209.84;227452;1241;138682;-67
2022/11/27 13:50:42;;;;;;;27.30;13.40;;;;;;;7.36;62.43;100211.94;226163;1251;139222;-68
2022/11/27 13:55:53;;;;;;;25.10;14.60;;;;;;;7.26;62.55;100208.15;227317;1244;141445;-67
2022/11/27 14:00:57;;;;;;;21.10;13.50;;;;;;;7.17;62.90;100210.02;227638;1228;139089;-64
2022/11/27 14:06:00;;;;;;;23.10;13.10;;;;;;;7.13;62.94;100209.25;227347;1231;138803;-66
2022/11/27 14:11:11;;;;;;;22.30;13.50;;;;;;;7.09;63.09;100205.66;226153;1235;139100;-66
2022/11/27 14:16:25;;;;;;;20.80;12.60;;;;;;;7.07;63.14;100203.08;226103;1241;138686;-67
2022/11/27 14:21:34;;;;;;;20.40;12.50;;;;;;;7.00;63.38;100199.59;226401;1240;139563;-67
2022/11/27 14:26:40;;;;;;;23.90;13.70;;;;;;;6.97;63.05;100206.17;226424;1241;138809;-67
2022/11/27 14:31:43;;;;;;;20.70;13.30;;;;;;;6.96;63.11;100212.38;226266;1243;138796;-67
2022/11/27 14:36:53;;;;;;;25.20;15.40;;;;;;;6.93;62.81;100214.79;226484;1235;139128;-68
2022/11/27 14:41:59;;;;;;;22.90;14.50;;;;;;;6.90;62.75;100211.32;226238;1250;139038;-67
2022/11/27 14:47:07;;;;;;;;;;;;;;;6.89;62.97;100201.66;227541;1242;138941;-66
2022/11/27 14:52:15;;;;;;;22.00;12.60;;;;;;;6.85;63.55;100200.70;226338;1249;125437;-67
2022/11/27 14:57:25;;;;;;;21.70;13.40;;;;;;;6.81;63.85;100198.34;227272;1229;138566;-67
2022/11/27 15:02:30;;;;;;;22.40;13.90;;;;;;;6.81;63.86;100192.19;226380;1250;139952;-68
2022/11/27 15:07:35;;;;;;;28.20;15.00;;;;;;;6.78;64.08;100189.98;226292;1249;138965;-67
2022/11/27 15:12:49;;;;;;;23.70;14.10;;;;;;;6.78;64.37;100188.91;226290;1236;140371;-67
2022/11/27 15:17:57;;;;;;;25.80;15.00;;;;;;;6.81;64.07;100184.76;225981;1251;139559;-66
2022/11/27 15:23:01;;;;;;;25.10;14.60;;;;;;;6.84;64.20;100184.69;227090;1230;138579;-67
2022/11/27 15:28:28;;;;;;;25.80;15.90;;;;;;;6.87;64.29;100176.83;226385;1237;138684;-66
2022/11/27 15:33:32;;;;;;;25.80;14.90;;;;;;;6.87;64.26;100177.53;226498;1243;139217;-66
2022/11/27 15:38:35;;;;;;;22.60;15.20;;;;;;;6.83;64.33;100184.01;226398;1241;139009;-67
2022/11/27 15:43:38;;;;;;;26.70;14.90;;;;;;;6.84;64.28;100190.15;227274;1244;139106;-69
2022/11/27 15:48:41;;;;;;;24.50;14.90;;;;;;;6.77;64.37;100187.52;226283;1241;138826;-67
2022/11/27 15:53:46;;;;;;;26.50;15.10;;;;;;;6.72;64.47;100183.10;226383;1240;138424;-67
2022/11/27 15:58:49;;;;;;;25.50;14.50;;;;;;;6.68;64.34;100183.20;226362;1243;139135;-70
2022/11/27 16:03:52;;;;;;;140.00;91.00;;;;;;;6.65;65.14;100177.80;227338;1232;138315;-66
2022/11/27 16:08:57;;;;;;;30.40;16.70;;;;;;;6.70;65.03;100178.05;226355;1243;138579;-65
2022/11/27 16:14:01;;;;;;;27.50;15.30;;;;;;;6.67;64.43;100174.75;227482;1227;139118;-68
2022/11/27 16:19:05;;;;;;;24.60;15.20;;;;;;;6.60;64.37;100174.77;226501;1237;138685;-65
2022/11/27 16:24:12;;;;;;;27.50;16.20;;;;;;;6.52;64.36;100175.52;226088;1241;139142;-66
2022/11/27 16:29:15;;;;;;;26.90;16.20;;;;;;;6.47;64.57;100171.95;227277;1236;138408;-68
2022/11/27 16:34:18;;;;;;;30.10;16.60;;;;;;;6.45;64.58;100170.95;226328;1228;139860;-69
2022/11/27 16:39:23;;;;;;;141.40;88.00;;;;;;;6.46;65.07;100167.23;226245;1244;138653;-68
2022/11/27 16:44:26;;;;;;;30.70;19.10;;;;;;;6.52;65.46;100157.17;226034;1251;139577;-65
2022/11/27 16:49:29;;;;;;;31.20;17.80;;;;;;;6.58;64.49;100155.79;226241;1243;139007;-65
2022/11/27 16:54:33;;;;;;;32.80;18.10;;;;;;;6.57;64.42;100150.71;226471;1249;139092;-65
2022/11/27 16:59:37;;;;;;;27.90;17.40;;;;;;;6.54;64.63;100147.62;226451;1240;140998;-67
2022/11/27 17:04:41;;;;;;;24.30;16.50;;;;;;;6.49;64.59;100150.72;227358;1244;138718;-67
2022/11/27 17:09:45;;;;;;;29.60;19.40;;;;;;;6.46;64.69;100152.25;225433;1235;138981;-65
2022/11/27 17:14:49;;;;;;;81.50;53.90;;;;;;;6.45;64.86;100150.52;226458;1250;138804;-69
2022/11/27 17:19:58;;;;;;;37.00;20.30;;;;;;;6.50;65.75;100151.61;226376;1227;138895;-67
2022/11/27 17:25:04;;;;;;;27.80;17.80;;;;;;;6.49;64.77;100144.03;226251;1251;138734;-66
2022/11/27 17:30:07;;;;;;;30.60;18.80;;;;;;;6.42;64.58;100140.01;226200;1237;138667;-67
2022/11/27 17:35:11;;;;;;;29.90;18.20;;;;;;;6.35;64.65;100135.60;226454;1250;138477;-70
2022/11/27 17:40:17;;;;;;;27.80;16.70;;;;;;;6.32;64.65;100129.70;226402;1237;138390;-67
2022/11/27 17:45:21;;;;;;;27.80;18.00;;;;;;;6.29;64.79;100122.73;226191;1234;139804;-64
2022/11/27 17:50:25;;;;;;;33.20;18.60;;;;;;;6.25;65.17;100122.31;226027;1241;138617;-64
2022/11/27 17:55:29;;;;;;;143.90;79.00;;;;;;;6.23;65.47;100125.39;227354;1244;138500;-65
2022/11/27 18:00:37;;;;;;;34.80;21.90;;;;;;;6.29;66.15;100117.61;226459;1233;140111;-66
2022/11/27 18:05:41;;;;;;;28.90;18.70;;;;;;;6.31;65.10;100109.63;226205;1244;138438;-68
2022/11/27 18:10:45;;;;;;;33.30;19.90;;;;;;;6.27;65.25;100104.27;226346;1241;139236;-69
2022/11/27 18:15:49;;;;;;;32.60;20.10;;;;;;;6.33;65.38;100098.14;226367;1244;138959;-69
2022/11/27 18:20:53;;;;;;;33.80;21.20;;;;;;;6.38;65.21;100092.87;226307;1247;138599;-68
2022/11/27 18:25:56;;;;;;;34.70;21.30;;;;;;;6.42;65.04;100088.90;226193;1243;139772;-70
2022/11/27 18:31:07;;;;;;;37.80;22.90;;;;;;;6.39;64.89;100079.80;226228;1234;138631;-69
2022/11/27 18:36:12;;;;;;;39.20;22.50;;;;;;;6.36;64.89;100071.42;226325;1249;138934;-68
2022/11/27 18:41:19;;;;;;;37.20;22.80;;;;;;;6.31;64.91;100068.39;226308;1235;139232;-69
2022/11/27 18:46:23;;;;;;;36.80;22.30;;;;;;;6.27;65.08;100066.74;226236;1236;138447;-71
2022/11/27 18:51:27;;;;;;;36.20;20.50;;;;;;;6.26;65.06;100062.01;226221;1243;138779;-68
2022/11/27 18:56:32;;;;;;;86.80;57.10;;;;;;;6.20;65.47;100057.44;226230;1236;138743;-70
2022/11/27 19:01:37;;;;;;;94.30;62.30;;;;;;;6.19;65.40;100057.29;227446;1233;138162;-69
2022/11/27 19:06:45;;;;;;;39.60;23.40;;;;;;;6.24;66.16;100059.09;226361;1245;138605;-68
2022/11/27 19:11:48;;;;;;;43.40;22.80;;;;;;;6.23;65.60;100060.34;226061;1237;137998;-69
2022/11/27 19:16:52;;;;;;;38.10;22.40;;;;;;;6.16;65.58;100068.27;226236;1243;138550;-67
2022/11/27 19:22:00;;;;;;;125.20;79.90;;;;;;;6.17;66.35;100077.25;226300;1240;139059;-67
2022/11/27 19:27:05;;;;;;;37.10;23.20;;;;;;;6.27;66.33;100077.14;226152;1241;139265;-67
2022/11/27 19:32:13;;;;;;;39.50;24.00;;;;;;;6.27;65.54;100072.91;226221;1237;139771;-68
2022/11/27 19:37:17;;;;;;;40.10;24.30;;;;;;;6.28;65.35;100071.83;226509;1251;139434;-69
2022/11/27 19:42:40;;;;;;;44.50;25.20;;;;;;;6.30;65.24;100074.42;227522;1237;138618;-70
2022/11/27 19:47:45;;;;;;;37.90;24.50;;;;;;;6.28;65.17;100071.84;227266;1236;139549;-68
2022/11/27 19:52:49;;;;;;;42.80;24.80;;;;;;;6.23;65.18;100061.57;226205;1241;139249;-68
2022/11/27 19:58:05;;;;;;;44.50;25.80;;;;;;;6.18;65.51;100055.91;226416;1247;138322;-67
2022/11/27 20:03:11;;;;;;;43.90;24.70;;;;;;;6.14;65.67;100054.26;226275;1237;138617;-69
2022/11/27 20:08:16;;;;;;;44.90;26.10;;;;;;;6.09;65.63;100051.92;226176;1251;138923;-67
2022/11/27 20:13:23;;;;;;;41.20;24.90;;;;;;;6.06;65.67;100050.06;227408;1233;138516;-69
2022/11/27 20:18:28;;;;;;;40.60;25.00;;;;;;;6.07;65.84;100043.50;226298;1240;140123;-66
2022/11/27 20:23:33;;;;;;;131.00;85.50;;;;;;;6.12;66.17;100035.98;226235;1234;138844;-69
2022/11/27 20:28:40;;;;;;;45.70;27.80;;;;;;;6.26;66.23;100024.31;225964;1251;138527;-69
2022/11/27 20:33:44;;;;;;;43.70;24.50;;;;;;;6.24;65.54;100013.27;226294;1244;138625;-71
2022/11/27 20:38:59;;;;;;;42.50;24.70;;;;;;;6.20;65.54;100007.22;226357;1252;139448;-66
2022/11/27 20:44:12;;;;;;;40.80;25.20;;;;;;;6.16;65.48;100003.95;227390;1228;138601;-68
2022/11/27 20:49:19;;;;;;;41.00;25.10;;;;;;;6.13;65.65;100012.88;226323;1244;138666;-68
2022/11/27 20:54:41;;;;;;;43.60;25.10;;;;;;;6.11;65.74;100004.12;226476;1251;138589;-69
2022/11/27 20:59:45;;;;;;;46.40;26.50;;;;;;;6.07;65.63;99998.40;226127;1236;138708;-68
2022/11/27 21:04:58;;;;;;;44.00;25.40;;;;;;;6.06;65.68;100007.78;225770;1241;138688;-70
2022/11/27 21:10:05;;;;;;;49.00;26.20;;;;;;;6.06;65.71;100000.55;226121;1254;138942;-69
2022/11/27 21:15:14;;;;;;;43.10;26.20;;;;;;;6.08;65.74;100005.80;226055;1256;152242;-69
2022/11/27 21:20:19;;;;;;;43.60;26.30;;;;;;;6.07;65.84;100004.23;227210;1230;138697;-69
2022/11/27 21:25:23;;;;;;;40.70;26.10;;;;;;;6.05;65.74;100005.86;226395;1254;138976;-67
2022/11/27 21:30:27;;;;;;;41.20;25.60;;;;;;;6.03;65.87;99999.23;225520;1235;139033;-68
2022/11/27 21:35:38;;;;;;;39.50;24.50;;;;;;;6.02;65.91;99998.92;226166;1241;138734;-67
2022/11/27 21:40:50;;;;;;;38.80;23.80;;;;;;;5.99;65.91;99997.59;226101;1244;138701;-67
2022/11/27 21:46:18;;;;;;;36.30;21.90;;;;;;;5.98;65.82;99999.56;226161;1242;139075;-67
2022/11/27 21:51:27;;;;;;;38.20;22.50;;;;;;;5.93;66.05;99991.23;226006;1256;138515;-77
2022/11/27 21:57:07;;;;;;;38.60;23.80;;;;;;;5.88;66.01;99993.45;226099;1237;138569;-73
2022/11/27 22:02:11;;;;;;;35.70;23.40;;;;;;;5.86;66.09;99989.97;226039;1240;138397;-70
2022/11/27 22:07:16;;;;;;;36.80;23.20;;;;;;;5.83;66.29;99983.54;226328;1238;139236;-67
2022/11/27 22:12:22;;;;;;;39.40;23.70;;;;;;;5.81;66.22;99977.46;227090;1233;139000;-72
2022/11/27 22:17:26;;;;;;;35.10;23.10;;;;;;;5.78;66.37;99977.55;227286;1236;139932;-73
2022/11/27 22:22:46;;;;;;;36.00;22.70;;;;;;;5.81;66.41;99971.98;227437;1248;138782;-73
2022/11/27 22:27:50;;;;;;;39.30;23.80;;;;;;;5.87;66.34;99966.02;226210;1241;139480;-72
2022/11/27 22:32:58;;;;;;;34.00;22.60;;;;;;;5.97;66.30;99966.29;226266;1240;138851;-68
2022/11/27 22:38:04;;;;;;;40.70;23.50;;;;;;;6.01;65.83;99962.30;227461;1230;139221;-69
2022/11/27 22:43:18;;;;;;;37.20;22.70;;;;;;;6.01;65.87;99949.97;226411;1244;138627;-71
2022/11/27 22:48:24;;;;;;;40.90;24.10;;;;;;;6.01;65.78;99943.99;226254;1238;138632;-69
2022/11/27 22:53:27;;;;;;;31.50;21.20;;;;;;;5.99;65.70;99946.53;226675;1238;138717;-73
2022/11/27 22:58:38;;;;;;;35.10;22.50;;;;;;;5.94;65.55;99943.30;226395;1241;139016;-72
2022/11/27 23:03:44;;;;;;;42.70;26.20;;;;;;;5.94;65.94;99934.50;226468;1244;137919;-73
2022/11/27 23:09:00;;;;;;;39.90;23.20;;;;;;;5.93;66.11;99922.54;226095;1242;138874;-72
2022/11/27 23:14:32;;;;;;;32.30;20.00;;;;;;;5.91;65.97;99908.67;226371;1243;138540;-72
2022/11/27 23:20:09;;;;;;;;;;;;;;;5.88;66.24;99901.89;226881;1252;138309;-72